createdAt,value
2022-11-28T00:01:27.950Z,100746.78
2022-11-28T00:03:54.773Z,100750.50
2022-11-28T00:06:21.899Z,100753.34
2022-11-28T00:08:48.600Z,100749.06
2022-11-28T00:11:16.490Z,100749.13
2022-11-28T00:13:44.088Z,100742.25
2022-11-28T00:16:15.844Z,100739.41
2022-11-28T00:18:42.369Z,100729.47
2022-11-28T00:21:11.703Z,100728.94
2022-11-28T00:23:38.776Z,100730.63
2022-11-28T00:26:17.419Z,100729.91
2022-11-28T00:28:43.882Z,100718.03
2022-11-28T00:31:18.815Z,100712.38
2022-11-28T00:33:45.879Z,100691.81
2022-11-28T00:36:12.674Z,100689.44
2022-11-28T00:38:39.223Z,100667.63
2022-11-28T00:41:10.078Z,100658.88
2022-11-28T00:43:37.195Z,100667.09
2022-11-28T00:46:04.258Z,100657.38
2022-11-28T00:48:32.700Z,100666.97
2022-11-28T00:51:11.005Z,100660.28
2022-11-28T00:53:40.402Z,100671.63
2022-11-28T00:56:07.896Z,100659.56
2022-11-28T00:58:35.816Z,100651.41
2022-11-28T01:01:14.547Z,100663.84
2022-11-28T01:03:42.390Z,100660.03
2022-11-28T01:06:10.279Z,100651.84
2022-11-28T01:08:37.453Z,100649.16
2022-11-28T01:11:11.332Z,100660.03
2022-11-28T01:13:37.759Z,100648.88
2022-11-28T01:16:04.388Z,100647.44
2022-11-28T01:18:30.868Z,100641.50
2022-11-28T01:20:57.331Z,100639.41
2022-11-28T01:23:23.829Z,100649.16
2022-11-28T01:25:50.293Z,100636.19
2022-11-28T01:28:16.731Z,100644.66
2022-11-28T01:30:43.180Z,100654.91
2022-11-28T01:33:09.699Z,100661.13
2022-11-28T01:35:36.134Z,100657.84
2022-11-28T01:38:02.538Z,100653.41
2022-11-28T01:40:28.999Z,100643.09
2022-11-28T01:42:55.442Z,100617.44
2022-11-28T01:45:23.741Z,100623.16
2022-11-28T01:47:53.633Z,100611.59
2022-11-28T01:50:22.485Z,100617.78
2022-11-28T01:52:55.054Z,100605.41
2022-11-28T01:55:24.548Z,100608.19
2022-11-28T01:57:54.121Z,100606.09
2022-11-28T02:00:21.632Z,100598.56
2022-11-28T02:02:51.395Z,100597.34
2022-11-28T02:05:20.957Z,100599.09
2022-11-28T02:07:48.507Z,100580.19
2022-11-28T02:10:26.121Z,100573.09
2022-11-28T02:13:17.294Z,100567.56
2022-11-28T02:16:11.365Z,100587.56
2022-11-28T02:18:50.283Z,100584.75
2022-11-28T02:21:22.952Z,100574.84
2022-11-28T02:23:58.341Z,100586.69
2022-11-28T02:26:51.277Z,100593.03
2022-11-28T02:29:51.428Z,100586.28
2022-11-28T02:32:34.666Z,100581.28
2022-11-28T02:35:22.696Z,100583.13
2022-11-28T02:38:37.506Z,100578.22
2022-11-28T02:41:22.416Z,100563.38
2022-11-28T02:43:49.868Z,100569.38
2022-11-28T02:46:54.269Z,100550.97
2022-11-28T02:49:47.189Z,100557.94
2022-11-28T02:52:18.781Z,100549.28
2022-11-28T02:54:46.258Z,100553.03
2022-11-28T02:57:12.697Z,100544.50
2022-11-28T02:59:39.059Z,100546.56
2022-11-28T03:02:13.903Z,100535.09
2022-11-28T03:04:53.453Z,100526.22
2022-11-28T03:07:32.236Z,100518.19
2022-11-28T03:09:58.697Z,100495.41
2022-11-28T03:12:30.843Z,100487.06
2022-11-28T03:15:07.457Z,100494.44
2022-11-28T03:17:52.095Z,100492.88
2022-11-28T03:20:37.393Z,100489.16
2022-11-28T03:23:12.138Z,100508.16
2022-11-28T03:26:10.579Z,100547.47
2022-11-28T03:28:45.202Z,100577.09
2022-11-28T03:31:16.450Z,100585.38
2022-11-28T03:33:48.893Z,100597.56
2022-11-28T03:36:21.196Z,100573.50
2022-11-28T03:39:00.421Z,100573.50
2022-11-28T03:41:35.619Z,100578.31
2022-11-28T03:44:04.997Z,100556.94
2022-11-28T03:46:38.967Z,100558.06
2022-11-28T03:49:09.436Z,100546.91
2022-11-28T03:51:49.513Z,100553.69
2022-11-28T03:54:32.684Z,100534.81
2022-11-28T03:57:06.904Z,100533.06
2022-11-28T03:59:41.920Z,100535.25
2022-11-28T04:02:52.606Z,100536.44
2022-11-28T04:05:43.218Z,100534.59
2022-11-28T04:08:14.561Z,100522.19
2022-11-28T04:10:53.715Z,100519.41
2022-11-28T04:13:44.037Z,100519.28
2022-11-28T04:16:34.898Z,100508.06
2022-11-28T04:19:18.672Z,100510.97
2022-11-28T04:22:00.038Z,100514.25
2022-11-28T04:24:31.732Z,100514.13
2022-11-28T04:27:06.068Z,100501.41
2022-11-28T04:29:38.752Z,100500.31
2022-11-28T04:32:08.052Z,100494.72
2022-11-28T04:34:36.223Z,100490.44
2022-11-28T04:37:09.569Z,100496.72
2022-11-28T04:39:38.215Z,100483.84
2022-11-28T04:42:13.756Z,100482.03
2022-11-28T04:44:43.355Z,100480.75
2022-11-28T04:47:10.407Z,100476.41
2022-11-28T04:49:37.729Z,100474.72
2022-11-28T04:52:14.379Z,100467.19
2022-11-28T04:54:46.691Z,100460.13
2022-11-28T04:57:23.735Z,100451.47
2022-11-28T04:59:51.578Z,100436.00
2022-11-28T05:02:20.486Z,100432.66
2022-11-28T05:04:47.482Z,100426.31
2022-11-28T05:07:14.085Z,100432.69
2022-11-28T05:09:40.574Z,100430.16
2022-11-28T05:12:07.212Z,100431.66
2022-11-28T05:14:33.690Z,100438.03
2022-11-28T05:17:00.149Z,100433.28
2022-11-28T05:19:26.597Z,100437.25
2022-11-28T05:21:55.852Z,100441.53
2022-11-28T05:24:29.313Z,100433.97
2022-11-28T05:26:58.468Z,100440.00
2022-11-28T05:29:25.646Z,100436.88
2022-11-28T05:31:52.152Z,100440.66
2022-11-28T05:34:18.655Z,100433.63
2022-11-28T05:36:45.080Z,100435.59
2022-11-28T05:39:11.499Z,100425.91
2022-11-28T05:41:37.957Z,100441.41
2022-11-28T05:44:04.436Z,100431.25
2022-11-28T05:46:30.869Z,100438.88
2022-11-28T05:48:57.657Z,100430.69
2022-11-28T05:51:24.304Z,100433.31
2022-11-28T05:53:51.038Z,100427.75
2022-11-28T05:56:20.164Z,100426.13
2022-11-28T05:58:46.630Z,100414.41
2022-11-28T06:01:22.684Z,100421.66
2022-11-28T06:03:49.169Z,100420.31
2022-11-28T06:06:15.527Z,100408.09
2022-11-28T06:08:42.709Z,100409.25
2022-11-28T06:11:09.736Z,100416.13
2022-11-28T06:13:36.733Z,100403.94
2022-11-28T06:16:06.650Z,100414.69
2022-11-28T06:18:33.083Z,100409.81
2022-11-28T06:21:02.738Z,100423.38
2022-11-28T06:23:29.385Z,100405.75
2022-11-28T06:25:55.861Z,100423.25
2022-11-28T06:28:22.277Z,100418.69
2022-11-28T06:30:48.727Z,100417.06
2022-11-28T06:33:15.198Z,100414.81
2022-11-28T06:35:41.795Z,100418.34
2022-11-28T06:38:13.952Z,100433.44
2022-11-28T06:40:41.055Z,100411.13
2022-11-28T06:43:07.511Z,100424.94
2022-11-28T06:45:34.999Z,100427.25
2022-11-28T06:48:02.050Z,100432.22
2022-11-28T06:50:28.644Z,100438.72
2022-11-28T06:52:55.680Z,100434.81
2022-11-28T06:55:22.180Z,100446.28
2022-11-28T06:57:48.691Z,100442.16
2022-11-28T07:00:15.665Z,100452.41
2022-11-28T07:02:42.134Z,100467.28
2022-11-28T07:05:08.752Z,100457.97
2022-11-28T07:07:49.996Z,100446.47
2022-11-28T07:10:20.246Z,100460.34
2022-11-28T07:12:46.975Z,100456.13
2022-11-28T07:15:13.434Z,100458.25
2022-11-28T07:17:39.863Z,100466.53
2022-11-28T07:20:06.991Z,100471.56
2022-11-28T07:22:33.453Z,100489.41
2022-11-28T07:24:59.912Z,100490.50
2022-11-28T07:27:26.410Z,100482.97
2022-11-28T07:29:52.818Z,100484.06
2022-11-28T07:32:19.262Z,100498.13
2022-11-28T07:34:50.018Z,100488.22
2022-11-28T07:37:16.748Z,100485.50
2022-11-28T07:39:44.592Z,100501.50
2022-11-28T07:42:14.497Z,100503.03
2022-11-28T07:44:40.981Z,100503.53
2022-11-28T07:47:07.467Z,100484.63
2022-11-28T07:49:33.928Z,100489.22
2022-11-28T07:52:01.055Z,100489.94
2022-11-28T07:54:27.526Z,100490.72
2022-11-28T07:59:40.775Z,100494.13
2022-11-28T08:02:09.042Z,100496.13
2022-11-28T08:04:37.129Z,100485.50
2022-11-28T08:07:03.645Z,100485.09
2022-11-28T08:09:31.795Z,100485.56
2022-11-28T08:11:58.678Z,100486.03
2022-11-28T08:14:25.372Z,100491.25
2022-11-28T08:16:52.350Z,100496.50
2022-11-28T08:19:22.944Z,100493.06
2022-11-28T08:21:51.093Z,100498.63
2022-11-28T08:24:17.578Z,100489.22
2022-11-28T08:26:44.041Z,100476.66
2022-11-28T08:29:10.903Z,100469.25
2022-11-28T08:31:38.818Z,100462.97
2022-11-28T08:34:10.855Z,100476.56
2022-11-28T08:36:37.700Z,100469.19
2022-11-28T08:41:56.935Z,100473.53
2022-11-28T08:44:23.369Z,100475.59
2022-11-28T08:46:49.820Z,100466.53
2022-11-28T08:49:16.297Z,100468.41
2022-11-28T08:51:42.856Z,100480.09
2022-11-28T08:54:09.398Z,100475.56
2022-11-28T08:56:35.864Z,100465.25
2022-11-28T08:59:03.371Z,100467.09
2022-11-28T09:01:29.949Z,100469.06
2022-11-28T09:03:56.935Z,100462.47
2022-11-28T09:06:23.985Z,100466.00
2022-11-28T09:08:51.621Z,100464.31
2022-11-28T09:11:20.553Z,100469.38
2022-11-28T09:13:47.201Z,100467.50
2022-11-28T09:16:14.810Z,100472.78
2022-11-28T09:18:41.505Z,100466.09
2022-11-28T09:21:09.807Z,100471.94
2022-11-28T09:23:37.255Z,100486.03
2022-11-28T09:26:15.468Z,100482.53
2022-11-28T09:28:41.922Z,100477.19
2022-11-28T09:31:09.072Z,100490.75
2022-11-28T09:33:36.338Z,100476.91
2022-11-28T09:36:08.119Z,100475.22
2022-11-28T09:38:35.192Z,100483.25
2022-11-28T09:41:02.934Z,100474.78
2022-11-28T09:43:36.693Z,100479.69
2022-11-28T09:46:07.858Z,100500.38
2022-11-28T09:48:46.523Z,100480.78
2022-11-28T09:51:34.593Z,100471.94
2022-11-28T09:54:36.355Z,100469.66
2022-11-28T09:57:08.704Z,100479.16
2022-11-28T09:59:35.676Z,100479.25
2022-11-28T10:02:29.274Z,100480.09
2022-11-28T10:05:06.135Z,100475.19
2022-11-28T10:07:56.905Z,100483.66
2022-11-28T10:10:35.896Z,100488.34
2022-11-28T10:13:41.174Z,100485.56
2022-11-28T10:16:49.815Z,100473.97
2022-11-28T10:19:53.248Z,100477.50
2022-11-28T10:22:22.764Z,100464.66
2022-11-28T10:24:56.142Z,100471.25
2022-11-28T10:27:29.394Z,100468.69
2022-11-28T10:30:03.998Z,100460.28
2022-11-28T10:32:36.467Z,100463.69
2022-11-28T10:35:10.334Z,100459.19
2022-11-28T10:37:38.713Z,100455.78
2022-11-28T10:40:20.933Z,100450.59
2022-11-28T10:43:04.663Z,100448.47
2022-11-28T10:46:09.470Z,100440.50
2022-11-28T10:48:45.606Z,100444.00
2022-11-28T10:51:32.281Z,100437.97
2022-11-28T10:54:26.958Z,100441.31
2022-11-28T10:57:36.560Z,100437.53
2022-11-28T11:00:14.667Z,100443.25
2022-11-28T11:02:46.077Z,100442.72
2022-11-28T11:05:16.291Z,100428.63
2022-11-28T11:07:55.040Z,100439.69
2022-11-28T11:10:35.201Z,100441.25
2022-11-28T11:13:14.581Z,100447.03
2022-11-28T11:15:41.827Z,100439.44
2022-11-28T11:18:32.638Z,100442.44
2022-11-28T11:21:26.785Z,100441.69
2022-11-28T11:24:17.161Z,100433.81
2022-11-28T11:26:47.129Z,100445.03
2022-11-28T11:29:29.281Z,100434.63
2022-11-28T11:32:04.082Z,100449.41
2022-11-28T11:34:36.372Z,100442.25
2022-11-28T11:37:38.994Z,100434.69
2022-11-28T11:40:22.710Z,100432.06
2022-11-28T11:42:55.536Z,100423.16
2022-11-28T11:45:34.061Z,100432.31
2022-11-28T11:48:01.974Z,100428.28
2022-11-28T11:50:30.757Z,100428.69
2022-11-28T11:53:07.905Z,100425.16
2022-11-28T11:55:44.512Z,100423.47
2022-11-28T11:58:16.499Z,100425.03
2022-11-28T12:00:43.470Z,100413.38
2022-11-28T12:03:29.148Z,100415.00
2022-11-28T12:06:20.672Z,100416.50
2022-11-28T12:08:52.822Z,100410.34
2022-11-28T12:11:25.383Z,100418.66
2022-11-28T12:13:52.843Z,100420.19
2022-11-28T12:16:43.601Z,100419.66
2022-11-28T12:19:25.440Z,100425.56
2022-11-28T12:22:08.580Z,100418.88
2022-11-28T12:24:47.550Z,100419.00
2022-11-28T12:27:35.195Z,100407.72
2022-11-28T12:30:18.413Z,100411.09
2022-11-28T12:33:12.661Z,100405.81
2022-11-28T12:35:46.277Z,100407.38
2022-11-28T12:38:24.879Z,100410.72
2022-11-28T12:40:56.433Z,100409.94
2022-11-28T12:43:47.435Z,100410.38
2022-11-28T12:46:19.905Z,100401.09
2022-11-28T12:49:04.899Z,100402.94
2022-11-28T12:51:40.704Z,100400.53
2022-11-28T12:54:28.605Z,100412.56
2022-11-28T12:57:02.815Z,100413.22
2022-11-28T12:59:35.490Z,100398.75
2022-11-28T13:02:30.446Z,100409.69
2022-11-28T13:05:02.982Z,100402.78
2022-11-28T13:08:20.496Z,100398.84
2022-11-28T13:11:08.423Z,100409.91
2022-11-28T13:13:46.103Z,100406.56
2022-11-28T13:16:26.996Z,100407.47
2022-11-28T13:19:08.063Z,100410.13
2022-11-28T13:21:43.845Z,100406.22
2022-11-28T13:24:31.481Z,100407.19
2022-11-28T13:27:22.268Z,100410.34
2022-11-28T13:30:02.347Z,100401.38
2022-11-28T13:32:32.780Z,100408.53
2022-11-28T13:34:59.828Z,100409.94
2022-11-28T13:40:45.868Z,100414.88
2022-11-28T13:43:33.149Z,100407.00
2022-11-28T13:46:00.117Z,100411.19
2022-11-28T13:49:28.387Z,100410.25
2022-11-28T13:52:19.306Z,100417.47
2022-11-28T13:54:53.833Z,100408.22
2022-11-28T13:57:39.698Z,100413.84
2022-11-28T14:00:22.105Z,100419.44
2022-11-28T14:02:53.650Z,100416.91
2022-11-28T14:05:26.527Z,100429.34
2022-11-28T14:07:56.006Z,100432.31
2022-11-28T14:10:28.581Z,100442.53
2022-11-28T14:13:16.314Z,100443.66
2022-11-28T14:15:48.699Z,100444.53
2022-11-28T14:18:55.635Z,100451.72
2022-11-28T14:21:22.375Z,100445.19
2022-11-28T14:23:58.082Z,100450.34
2022-11-28T14:26:35.927Z,100444.88
2022-11-28T14:29:06.214Z,100440.88
2022-11-28T14:31:39.852Z,100442.09
2022-11-28T14:34:30.533Z,100443.78
2022-11-28T14:37:43.518Z,100442.47
2022-11-28T14:40:48.512Z,100445.81
2022-11-28T14:43:25.641Z,100435.88
2022-11-28T14:46:12.723Z,100436.09
2022-11-28T14:48:42.076Z,100440.34
2022-11-28T14:51:09.422Z,100441.44
2022-11-28T14:53:38.752Z,100443.66
2022-11-28T14:56:22.369Z,100450.06
2022-11-28T14:58:51.062Z,100447.38
2022-11-28T15:01:55.269Z,100443.75
2022-11-28T15:04:27.833Z,100435.03
2022-11-28T15:06:55.383Z,100444.00
2022-11-28T15:09:32.931Z,100450.59
2022-11-28T15:12:12.610Z,100442.31
2022-11-28T15:14:39.913Z,100445.88
2022-11-28T15:17:13.093Z,100449.88
2022-11-28T15:19:45.254Z,100451.56
2022-11-28T15:22:38.992Z,100456.97
2022-11-28T15:25:18.402Z,100456.09
2022-11-28T15:27:45.103Z,100445.22
2022-11-28T15:30:17.949Z,100446.44
2022-11-28T15:32:45.010Z,100447.03
2022-11-28T15:35:15.732Z,100452.84
2022-11-28T15:37:51.948Z,100450.16
2022-11-28T15:40:26.319Z,100431.22
2022-11-28T15:42:52.906Z,100441.28
2022-11-28T15:45:28.750Z,100434.56
2022-11-28T15:47:56.636Z,100446.22
2022-11-28T15:50:29.686Z,100450.69
2022-11-28T15:53:00.288Z,100445.66
2022-11-28T15:55:30.669Z,100442.63
2022-11-28T15:58:20.245Z,100449.41
2022-11-28T16:01:28.162Z,100449.16
2022-11-28T16:03:56.916Z,100447.63
2022-11-28T16:06:26.677Z,100453.84
2022-11-28T16:08:54.905Z,100448.72
2022-11-28T16:11:24.182Z,100445.25
2022-11-28T16:13:52.586Z,100444.88
2022-11-28T16:16:22.964Z,100445.22
2022-11-28T16:19:01.726Z,100453.56
2022-11-28T16:21:31.979Z,100446.84
2022-11-28T16:24:00.614Z,100445.88
2022-11-28T16:26:31.783Z,100440.44
2022-11-28T16:29:05.406Z,100440.53
2022-11-28T16:31:32.153Z,100439.88
2022-11-28T16:33:59.925Z,100440.56
2022-11-28T16:36:31.899Z,100447.06
2022-11-28T16:39:15.650Z,100450.06
2022-11-28T16:41:46.382Z,100447.00
2022-11-28T16:44:15.580Z,100441.47
2022-11-28T16:46:51.291Z,100442.13
2022-11-28T16:49:40.608Z,100437.91
2022-11-28T16:52:22.226Z,100440.41
2022-11-28T16:54:53.644Z,100442.25
2022-11-28T16:57:20.994Z,100443.69
2022-11-28T16:59:48.801Z,100429.97
2022-11-28T17:02:17.228Z,100437.22
2022-11-28T17:04:44.329Z,100425.88
2022-11-28T17:07:14.573Z,100445.09
2022-11-28T17:09:42.508Z,100442.66
2022-11-28T17:12:16.921Z,100443.28
2022-11-28T17:14:44.205Z,100437.78
2022-11-28T17:17:15.808Z,100446.00
2022-11-28T17:19:43.255Z,100448.47
2022-11-28T17:22:23.066Z,100450.84
2022-11-28T17:24:51.674Z,100453.06
2022-11-28T17:27:18.464Z,100455.00
2022-11-28T17:29:45.039Z,100452.97
2022-11-28T17:32:13.836Z,100461.03
2022-11-28T17:34:43.999Z,100458.41
2022-11-28T17:37:10.692Z,100464.00
2022-11-28T17:39:37.735Z,100470.72
2022-11-28T17:42:05.011Z,100470.09
2022-11-28T17:44:34.502Z,100473.47
2022-11-28T17:47:02.142Z,100472.38
2022-11-28T17:49:29.446Z,100471.38
2022-11-28T17:51:56.671Z,100473.00
2022-11-28T17:54:24.674Z,100484.38
2022-11-28T17:56:52.873Z,100481.50
2022-11-28T17:59:21.499Z,100476.59
2022-11-28T18:01:48.455Z,100477.44
2022-11-28T18:04:15.074Z,100473.19
2022-11-28T18:06:44.352Z,100474.13
2022-11-28T18:09:12.309Z,100475.81
2022-11-28T18:11:39.791Z,100473.31
2022-11-28T18:14:06.573Z,100472.69
2022-11-28T18:16:35.476Z,100486.78
2022-11-28T18:19:02.387Z,100477.16
2022-11-28T18:21:28.862Z,100476.38
2022-11-28T18:23:55.967Z,100485.66
2022-11-28T18:26:25.955Z,100483.03
2022-11-28T18:28:53.231Z,100493.38
2022-11-28T18:31:25.195Z,100490.47
2022-11-28T18:33:56.145Z,100488.22
2022-11-28T18:36:27.494Z,100495.22
2022-11-28T18:38:55.731Z,100499.50
2022-11-28T18:41:22.306Z,100495.38
2022-11-28T18:43:48.974Z,100499.84
2022-11-28T18:46:19.169Z,100495.56
2022-11-28T18:48:47.061Z,100489.50
2022-11-28T18:51:16.994Z,100492.91
2022-11-28T18:53:47.170Z,100494.84
2022-11-28T18:56:14.147Z,100491.75
2022-11-28T18:58:43.728Z,100484.22
2022-11-28T19:01:19.721Z,100491.19
2022-11-28T19:03:50.935Z,100490.75
2022-11-28T19:06:17.444Z,100497.06
2022-11-28T19:08:43.993Z,100497.22
2022-11-28T19:11:14.499Z,100491.50
2022-11-28T19:13:42.551Z,100490.34
2022-11-28T19:16:20.289Z,100487.63
2022-11-28T19:18:46.803Z,100485.66
2022-11-28T19:21:16.033Z,100494.19
2022-11-28T19:23:42.485Z,100495.16
2022-11-28T19:26:12.013Z,100502.50
2022-11-28T19:28:40.233Z,100501.94
2022-11-28T19:31:21.162Z,100503.00
2022-11-28T19:34:01.328Z,100509.91
2022-11-28T19:36:37.355Z,100512.59
2022-11-28T19:39:04.473Z,100506.59
2022-11-28T19:41:31.021Z,100511.91
2022-11-28T19:43:57.726Z,100507.53
2022-11-28T19:46:24.311Z,100507.91
2022-11-28T19:48:51.695Z,100511.66
2022-11-28T19:51:18.830Z,100512.16
2022-11-28T19:53:45.236Z,100510.03
2022-11-28T19:56:13.190Z,100512.06
2022-11-28T19:58:40.152Z,100510.09
2022-11-28T20:01:18.734Z,100510.38
2022-11-28T20:03:49.838Z,100515.88
2022-11-28T20:06:23.077Z,100513.59
2022-11-28T20:08:51.615Z,100511.84
2022-11-28T20:11:21.803Z,100513.50
2022-11-28T20:13:49.562Z,100517.94
2022-11-28T20:16:17.720Z,100517.34
2022-11-28T20:18:45.047Z,100522.66
2022-11-28T20:21:13.370Z,100523.13
2022-11-28T20:23:51.487Z,100527.00
2022-11-28T20:26:20.453Z,100529.22
2022-11-28T20:28:48.106Z,100524.88
2022-11-28T20:31:20.971Z,100528.66
2022-11-28T20:33:49.037Z,100519.31
2022-11-28T20:36:17.775Z,100533.28
2022-11-28T20:38:44.619Z,100533.88
2022-11-28T20:41:12.897Z,100533.94
2022-11-28T20:43:40.199Z,100542.47
2022-11-28T20:46:15.593Z,100547.00
2022-11-28T20:48:42.254Z,100533.22
2022-11-28T20:51:19.932Z,100532.28
2022-11-28T20:53:46.877Z,100542.75
2022-11-28T20:56:19.233Z,100542.22
2022-11-28T20:58:46.196Z,100549.91
2022-11-28T21:01:14.891Z,100540.50
2022-11-28T21:03:41.492Z,100540.28
2022-11-28T21:06:08.260Z,100547.28
2022-11-28T21:08:35.548Z,100540.53
2022-11-28T21:11:06.817Z,100543.72
2022-11-28T21:13:33.516Z,100540.56
2022-11-28T21:16:09.479Z,100548.72
2022-11-28T21:18:37.930Z,100541.78
2022-11-28T21:21:09.836Z,100545.69
2022-11-28T21:23:37.930Z,100540.75
2022-11-28T21:26:07.646Z,100546.00
2022-11-28T21:28:39.054Z,100547.88
2022-11-28T21:31:07.934Z,100541.69
2022-11-28T21:33:34.709Z,100553.41
2022-11-28T21:36:02.736Z,100552.44
2022-11-28T21:38:30.601Z,100542.84
2022-11-28T21:40:57.518Z,100543.81
2022-11-28T21:43:24.049Z,100545.53
2022-11-28T21:45:51.184Z,100547.28
2022-11-28T21:48:17.693Z,100544.41
2022-11-28T21:50:50.957Z,100539.84
2022-11-28T21:53:17.961Z,100540.34
2022-11-28T21:55:45.089Z,100539.47
2022-11-28T21:58:11.514Z,100537.09
2022-11-28T22:00:53.190Z,100541.19
2022-11-28T22:03:22.100Z,100540.63
2022-11-28T22:05:48.706Z,100536.63
2022-11-28T22:08:15.141Z,100544.63
2022-11-28T22:10:41.668Z,100530.56
2022-11-28T22:13:08.106Z,100536.47
2022-11-28T22:15:34.523Z,100540.41
2022-11-28T22:18:00.940Z,100538.16
2022-11-28T22:20:27.419Z,100547.19
2022-11-28T22:22:53.872Z,100551.38
2022-11-28T22:25:20.274Z,100545.91
2022-11-28T22:27:46.700Z,100549.84
2022-11-28T22:30:13.261Z,100546.00
2022-11-28T22:32:39.718Z,100551.78
2022-11-28T22:35:09.158Z,100547.69
2022-11-28T22:37:36.619Z,100553.91
2022-11-28T22:40:04.161Z,100555.06
2022-11-28T22:42:30.652Z,100553.28
2022-11-28T22:44:57.038Z,100558.53
2022-11-28T22:47:23.577Z,100551.16
2022-11-28T22:49:50.056Z,100547.03
2022-11-28T22:52:16.875Z,100554.59
2022-11-28T22:54:43.613Z,100560.09
2022-11-28T22:57:10.293Z,100556.25
2022-11-28T22:59:38.540Z,100555.41
2022-11-28T23:02:05.267Z,100562.44
2022-11-28T23:04:31.838Z,100567.03
2022-11-28T23:06:58.280Z,100571.03
2022-11-28T23:09:24.733Z,100571.06
2022-11-28T23:11:51.163Z,100573.41
2022-11-28T23:14:17.647Z,100568.38
2022-11-28T23:16:45.207Z,100579.06
2022-11-28T23:19:14.993Z,100565.94
2022-11-28T23:21:43.428Z,100582.91
2022-11-28T23:24:13.973Z,100568.38
2022-11-28T23:26:40.719Z,100578.56
2022-11-28T23:29:07.387Z,100571.22
2022-11-28T23:31:37.342Z,100573.81
2022-11-28T23:34:04.246Z,100574.09
2022-11-28T23:36:38.522Z,100576.34
2022-11-28T23:39:12.269Z,100582.91
2022-11-28T23:41:38.988Z,100576.72
2022-11-28T23:44:05.983Z,100582.81
2022-11-28T23:46:33.269Z,100573.53
2022-11-28T23:48:59.695Z,100585.00
2022-11-28T23:51:26.438Z,100585.19
2022-11-28T23:53:53.655Z,100589.72
2022-11-28T23:56:26.631Z,100586.03
2022-11-28T23:58:53.992Z,100582.19
